createdAt,value
2022-12-18T00:01:40.126Z,102694.06
2022-12-18T00:04:20.489Z,102686.31
2022-12-18T00:06:52.977Z,102680.75
2022-12-18T00:09:22.481Z,102673.00
2022-12-18T00:11:53.513Z,102662.22
2022-12-18T00:14:23.122Z,102671.09
2022-12-18T00:16:55.080Z,102657.94
2022-12-18T00:19:24.205Z,102677.59
2022-12-18T00:21:54.646Z,102264.97
2022-12-18T00:24:26.399Z,102681.31
2022-12-18T00:26:57.546Z,102675.38
2022-12-18T00:29:26.244Z,102684.75
2022-12-18T00:31:56.146Z,102691.75
2022-12-18T00:34:24.811Z,102686.19
2022-12-18T00:36:56.118Z,102682.84
2022-12-18T00:39:25.310Z,102685.34
2022-12-18T00:42:14.670Z,102685.31
2022-12-18T00:44:43.463Z,102688.34
2022-12-18T00:47:13.125Z,102683.34
2022-12-18T00:49:41.892Z,102694.50
2022-12-18T00:52:12.281Z,102700.66
2022-12-18T00:54:40.955Z,102702.81
2022-12-18T00:57:12.156Z,102694.31
2022-12-18T00:59:40.926Z,102690.88
2022-12-18T01:02:09.891Z,102687.06
2022-12-18T01:04:39.465Z,102689.31
2022-12-18T01:07:09.124Z,102680.97
2022-12-18T01:09:39.903Z,102666.84
2022-12-18T01:12:09.195Z,102716.34
2022-12-18T01:14:40.002Z,102696.22
2022-12-18T01:17:09.024Z,102690.41
2022-12-18T01:19:37.810Z,102689.44
2022-12-18T01:22:06.496Z,102675.38
2022-12-18T01:24:35.408Z,102683.22
2022-12-18T01:27:09.438Z,102687.91
2022-12-18T01:29:38.190Z,102693.75
2022-12-18T01:32:07.055Z,102703.06
2022-12-18T01:34:37.147Z,102710.78
2022-12-18T01:37:06.749Z,102673.53
2022-12-18T01:39:35.720Z,102699.47
2022-12-18T01:42:11.879Z,102717.47
2022-12-18T01:44:58.987Z,102710.50
2022-12-18T01:47:32.575Z,102704.94
2022-12-18T01:50:09.217Z,102717.66
2022-12-18T01:52:43.447Z,102710.41
2022-12-18T01:55:17.488Z,102717.81
2022-12-18T01:57:49.484Z,102710.91
2022-12-18T02:00:27.696Z,102731.72
2022-12-18T02:02:57.294Z,102736.69
2022-12-18T02:05:40.063Z,102720.56
2022-12-18T02:08:20.118Z,102746.63
2022-12-18T02:10:59.361Z,102737.69
2022-12-18T02:13:38.700Z,102715.09
2022-12-18T02:16:20.117Z,102743.50
2022-12-18T02:18:55.568Z,102703.38
2022-12-18T02:21:36.500Z,102738.91
2022-12-18T02:24:27.630Z,102698.16
2022-12-18T02:27:01.533Z,102725.19
2022-12-18T02:29:39.315Z,102726.97
2022-12-18T02:32:16.207Z,102709.75
2022-12-18T02:34:46.911Z,102701.25
2022-12-18T02:37:21.634Z,102734.03
2022-12-18T02:39:55.488Z,102710.56
2022-12-18T02:42:30.579Z,102706.38
2022-12-18T02:45:12.764Z,102513.09
2022-12-18T02:47:46.284Z,102702.47
2022-12-18T02:50:27.940Z,102685.41
2022-12-18T02:53:13.629Z,102687.09
2022-12-18T02:55:54.427Z,102670.72
2022-12-18T02:58:32.106Z,102679.13
2022-12-18T03:01:14.177Z,102678.63
2022-12-18T03:03:47.164Z,102676.91
2022-12-18T03:06:23.170Z,102702.34
2022-12-18T03:09:00.100Z,102681.00
2022-12-18T03:11:47.298Z,102662.34
2022-12-18T03:14:20.997Z,102671.50
2022-12-18T03:17:03.993Z,102667.50
2022-12-18T03:19:41.181Z,102676.25
2022-12-18T03:22:12.050Z,102670.97
2022-12-18T03:24:49.962Z,102666.03
2022-12-18T03:27:26.868Z,102665.56
2022-12-18T03:30:08.655Z,102664.47
2022-12-18T03:32:44.887Z,102665.22
2022-12-18T03:35:26.515Z,102637.22
2022-12-18T03:37:55.919Z,102638.88
2022-12-18T03:40:33.493Z,102657.81
2022-12-18T03:43:13.683Z,102649.50
2022-12-18T03:45:54.343Z,102656.34
2022-12-18T03:48:31.746Z,102650.66
2022-12-18T03:51:11.072Z,102640.31
2022-12-18T03:53:50.133Z,102644.22
2022-12-18T03:56:24.740Z,102639.69
2022-12-18T03:58:55.910Z,102638.69
2022-12-18T04:01:37.455Z,102627.47
2022-12-18T04:04:14.143Z,102633.34
2022-12-18T04:06:45.699Z,102632.34
2022-12-18T04:09:16.157Z,102614.63
2022-12-18T04:11:49.618Z,102627.06
2022-12-18T04:14:23.545Z,102629.94
2022-12-18T04:16:57.786Z,102636.28
2022-12-18T04:19:33.257Z,102651.69
2022-12-18T04:22:03.844Z,102632.94
2022-12-18T04:24:46.084Z,102587.34
2022-12-18T04:27:25.584Z,102620.06
2022-12-18T04:29:57.644Z,102640.88
2022-12-18T04:32:28.449Z,102637.59
2022-12-18T04:34:59.918Z,102652.72
2022-12-18T04:37:29.085Z,102653.97
2022-12-18T04:39:58.600Z,102655.22
2022-12-18T04:42:35.682Z,102628.22
2022-12-18T04:45:06.184Z,102596.34
2022-12-18T04:47:36.628Z,102642.53
2022-12-18T04:50:10.387Z,102664.06
2022-12-18T04:52:39.762Z,102666.34
2022-12-18T04:55:09.446Z,102658.13
2022-12-18T04:57:41.099Z,102655.28
2022-12-18T05:00:14.152Z,102654.75
2022-12-18T05:02:45.801Z,102620.50
2022-12-18T05:05:18.100Z,102656.59
2022-12-18T05:07:47.048Z,102657.75
2022-12-18T05:10:15.919Z,102646.72
2022-12-18T05:13:04.625Z,102644.84
2022-12-18T05:15:35.974Z,102663.63
2022-12-18T05:18:06.842Z,102618.91
2022-12-18T05:20:35.923Z,102680.44
2022-12-18T05:23:05.262Z,102668.16
2022-12-18T05:25:37.711Z,102669.72
2022-12-18T05:28:07.394Z,102661.09
2022-12-18T05:30:38.406Z,102667.22
2022-12-18T05:33:08.683Z,102667.06
2022-12-18T05:35:37.736Z,102663.34
2022-12-18T05:38:06.866Z,102667.00
2022-12-18T05:40:38.518Z,102659.44
2022-12-18T05:43:19.388Z,102654.25
2022-12-18T05:45:53.330Z,102649.13
2022-12-18T05:48:32.555Z,102632.72
2022-12-18T05:51:12.385Z,102630.25
2022-12-18T05:53:44.864Z,102591.50
2022-12-18T05:56:17.049Z,102588.28
2022-12-18T05:58:50.925Z,102635.78
2022-12-18T06:01:25.294Z,102630.78
2022-12-18T06:03:57.851Z,102638.00
2022-12-18T06:06:30.268Z,102611.72
2022-12-18T06:08:59.684Z,102643.41
2022-12-18T06:11:29.329Z,102646.88
2022-12-18T06:13:59.587Z,102642.06
2022-12-18T06:16:30.505Z,102604.63
2022-12-18T06:19:03.034Z,102636.81
2022-12-18T06:21:32.652Z,102628.31
2022-12-18T06:24:03.134Z,102635.44
2022-12-18T06:26:32.551Z,102414.47
2022-12-18T06:29:02.954Z,102612.88
2022-12-18T06:31:32.468Z,102581.59
2022-12-18T06:34:05.243Z,102600.34
2022-12-18T06:36:34.358Z,102577.91
2022-12-18T06:39:06.144Z,102591.38
2022-12-18T06:41:35.218Z,102579.22
2022-12-18T06:44:04.154Z,102591.94
2022-12-18T06:46:33.292Z,102586.22
2022-12-18T06:49:03.733Z,102579.16
2022-12-18T06:51:32.956Z,102580.63
2022-12-18T06:54:02.123Z,102590.19
2022-12-18T06:56:31.423Z,102572.13
2022-12-18T06:59:02.442Z,102529.09
2022-12-18T07:01:31.303Z,102579.28
2022-12-18T07:04:00.100Z,102572.25
2022-12-18T07:06:33.134Z,102584.19
2022-12-18T07:09:01.882Z,102576.59
2022-12-18T07:11:30.635Z,102560.50
2022-12-18T07:13:59.372Z,102574.16
2022-12-18T07:16:29.525Z,102559.63
2022-12-18T07:19:00.613Z,102553.25
2022-12-18T07:21:31.231Z,102552.81
2022-12-18T07:24:00.280Z,102557.94
2022-12-18T07:26:29.167Z,102542.84
2022-12-18T07:28:59.176Z,102521.44
2022-12-18T07:31:31.037Z,102524.22
2022-12-18T07:34:03.036Z,102516.63
2022-12-18T07:36:33.230Z,102499.13
2022-12-18T07:39:02.220Z,102506.34
2022-12-18T07:41:31.057Z,102496.34
2022-12-18T07:44:07.449Z,102485.13
2022-12-18T07:46:36.170Z,102487.09
2022-12-18T07:49:05.283Z,102445.25
2022-12-18T07:51:35.634Z,102486.47
2022-12-18T07:54:05.766Z,102495.78
2022-12-18T07:56:34.818Z,102499.38
2022-12-18T07:59:03.810Z,102513.94
2022-12-18T08:01:32.925Z,102511.75
2022-12-18T08:04:02.630Z,102514.03
2022-12-18T08:06:32.400Z,102510.13
2022-12-18T08:09:03.316Z,102522.94
2022-12-18T08:11:32.257Z,102528.38
2022-12-18T08:14:01.409Z,102528.25
2022-12-18T08:16:31.477Z,102507.34
2022-12-18T08:19:00.879Z,102525.69
2022-12-18T08:21:31.386Z,102512.69
2022-12-18T08:24:04.620Z,102500.94
2022-12-18T08:26:33.985Z,102500.59
2022-12-18T08:29:03.556Z,102492.44
2022-12-18T08:31:34.102Z,102474.81
2022-12-18T08:34:03.379Z,102501.59
2022-12-18T08:36:32.103Z,102496.81
2022-12-18T08:39:06.285Z,102492.41
2022-12-18T08:41:35.120Z,102490.25
2022-12-18T08:44:21.381Z,102486.25
2022-12-18T08:46:52.582Z,102505.13
2022-12-18T08:49:21.413Z,102518.44
2022-12-18T08:51:50.139Z,102494.72
2022-12-18T08:54:20.168Z,102495.53
2022-12-18T08:56:48.930Z,102514.91
2022-12-18T08:59:20.123Z,102514.06
2022-12-18T09:01:50.228Z,102475.75
2022-12-18T09:04:19.306Z,102535.09
2022-12-18T09:06:48.056Z,102530.22
2022-12-18T09:09:23.163Z,102526.28
2022-12-18T09:11:51.929Z,102531.75
2022-12-18T09:14:23.243Z,102524.50
2022-12-18T09:16:52.247Z,102479.97
2022-12-18T09:19:21.005Z,102516.09
2022-12-18T09:21:50.187Z,102504.50
2022-12-18T09:24:19.994Z,102499.75
2022-12-18T09:26:54.797Z,102488.31
2022-12-18T09:29:28.721Z,102479.16
2022-12-18T09:32:00.611Z,102458.06
2022-12-18T09:34:29.593Z,102490.38
2022-12-18T09:37:01.662Z,102482.63
2022-12-18T09:39:30.917Z,102474.56
2022-12-18T09:42:04.747Z,102474.16
2022-12-18T09:44:44.672Z,102479.22
2022-12-18T09:47:20.594Z,102484.41
2022-12-18T09:49:51.060Z,102479.69
2022-12-18T09:52:23.733Z,102452.50
2022-12-18T09:55:00.874Z,102487.41
2022-12-18T09:57:35.398Z,102469.66
2022-12-18T10:00:19.705Z,102479.16
2022-12-18T10:02:49.948Z,102476.38
2022-12-18T10:05:22.767Z,102455.06
2022-12-18T10:07:57.756Z,102479.56
2022-12-18T10:10:38.659Z,102472.03
2022-12-18T10:13:17.850Z,102460.72
2022-12-18T10:15:59.507Z,102451.25
2022-12-18T10:18:40.307Z,102452.28
2022-12-18T10:21:13.772Z,102456.19
2022-12-18T10:23:49.984Z,102453.63
2022-12-18T10:26:19.417Z,102451.13
2022-12-18T10:28:56.944Z,102445.59
2022-12-18T10:31:27.798Z,102435.66
2022-12-18T10:33:57.028Z,102439.41
2022-12-18T10:36:27.249Z,102438.44
2022-12-18T10:38:55.947Z,102257.91
2022-12-18T10:41:29.427Z,102424.34
2022-12-18T10:44:29.714Z,102429.19
2022-12-18T10:47:11.661Z,102431.06
2022-12-18T10:49:51.481Z,102432.88
2022-12-18T10:52:23.274Z,102428.53
2022-12-18T10:54:54.167Z,102426.53
2022-12-18T10:57:35.603Z,102431.03
2022-12-18T11:00:27.468Z,102428.09
2022-12-18T11:02:57.976Z,102400.38
2022-12-18T11:05:32.925Z,102415.94
2022-12-18T11:08:03.422Z,102410.19
2022-12-18T11:10:34.369Z,102400.28
2022-12-18T11:13:15.084Z,102419.34
2022-12-18T11:15:46.491Z,102404.25
2022-12-18T11:18:27.532Z,102380.63
2022-12-18T11:20:59.556Z,102388.75
2022-12-18T11:23:29.579Z,102389.69
2022-12-18T11:26:01.239Z,102394.66
2022-12-18T11:28:37.895Z,102397.97
2022-12-18T11:31:21.125Z,102382.78
2022-12-18T11:34:26.752Z,102384.53
2022-12-18T11:36:48.607Z,102387.22
2022-12-18T11:39:22.488Z,102388.72
2022-12-18T11:42:12.400Z,102364.56
2022-12-18T11:44:49.010Z,102341.38
2022-12-18T11:47:31.528Z,102348.44
2022-12-18T11:50:04.085Z,102344.47
2022-12-18T11:52:40.176Z,102331.13
2022-12-18T11:55:16.297Z,102310.03
2022-12-18T11:57:54.201Z,102192.13
2022-12-18T12:00:24.566Z,102317.56
2022-12-18T12:03:25.549Z,102319.31
2022-12-18T12:06:10.189Z,102314.84
2022-12-18T12:08:51.683Z,102305.72
2022-12-18T12:11:29.708Z,102289.47
2022-12-18T12:14:12.791Z,102298.69
2022-12-18T12:16:53.258Z,102298.31
2022-12-18T12:19:36.340Z,102298.34
2022-12-18T12:22:18.404Z,102280.13
2022-12-18T12:25:01.885Z,102283.91
2022-12-18T12:27:40.947Z,102264.13
2022-12-18T12:30:12.929Z,102276.88
2022-12-18T12:32:55.383Z,102265.19
2022-12-18T12:35:34.042Z,102263.91
2022-12-18T12:38:13.143Z,102265.25
2022-12-18T12:40:53.891Z,102266.53
2022-12-18T12:43:33.370Z,102262.78
2022-12-18T12:46:07.826Z,102264.31
2022-12-18T12:48:44.551Z,102271.84
2022-12-18T12:51:21.653Z,102257.84
2022-12-18T12:53:55.532Z,102260.94
2022-12-18T12:56:29.955Z,102258.53
2022-12-18T12:59:11.548Z,102255.06
2022-12-18T13:01:50.959Z,102249.59
2022-12-18T13:04:29.055Z,102239.22
2022-12-18T13:07:06.679Z,102239.47
2022-12-18T13:10:17.760Z,102242.66
2022-12-18T13:12:58.825Z,102235.19
2022-12-18T13:15:36.481Z,102223.00
2022-12-18T13:18:18.223Z,102229.06
2022-12-18T13:20:53.702Z,102217.25
2022-12-18T13:23:31.617Z,102213.59
2022-12-18T13:26:02.904Z,102218.69
2022-12-18T13:29:00.566Z,102209.84
2022-12-18T13:32:08.848Z,102209.44
2022-12-18T13:34:38.990Z,102193.25
2022-12-18T13:37:54.205Z,102193.19
2022-12-18T13:40:57.443Z,102179.28
2022-12-18T13:43:32.000Z,102142.72
2022-12-18T13:46:18.723Z,102169.63
2022-12-18T13:48:55.567Z,102162.75
2022-12-18T13:51:28.483Z,102179.44
2022-12-18T13:54:09.405Z,102153.97
2022-12-18T13:56:46.193Z,102163.56
2022-12-18T13:59:23.003Z,102061.25
2022-12-18T14:01:58.095Z,102158.41
2022-12-18T14:04:30.765Z,102151.28
2022-12-18T14:07:04.906Z,102128.47
2022-12-18T14:09:38.893Z,102105.38
2022-12-18T14:12:35.509Z,102147.97
2022-12-18T14:15:07.346Z,102153.38
2022-12-18T14:17:38.765Z,102136.28
2022-12-18T14:20:16.800Z,102138.47
2022-12-18T14:22:51.137Z,102134.44
2022-12-18T14:25:26.440Z,102127.03
2022-12-18T14:28:10.971Z,102116.59
2022-12-18T14:30:45.865Z,102112.13
2022-12-18T14:33:19.515Z,102052.00
2022-12-18T14:35:59.856Z,102120.78
2022-12-18T14:38:31.811Z,102088.00
2022-12-18T14:41:03.254Z,102099.69
2022-12-18T14:43:35.561Z,102100.53
2022-12-18T14:46:08.255Z,102095.28
2022-12-18T14:49:18.707Z,102097.59
2022-12-18T14:51:50.871Z,102098.97
2022-12-18T14:54:22.274Z,102093.81
2022-12-18T14:56:53.713Z,102082.16
2022-12-18T14:59:25.254Z,102074.97
2022-12-18T15:02:02.985Z,102078.50
2022-12-18T15:04:36.932Z,102086.28
2022-12-18T15:07:17.612Z,102072.63
2022-12-18T15:10:05.878Z,102086.28
2022-12-18T15:12:39.174Z,102067.66
2022-12-18T15:15:42.396Z,102045.50
2022-12-18T15:18:16.595Z,102049.78
2022-12-18T15:20:49.359Z,102050.47
2022-12-18T15:23:21.779Z,102061.50
2022-12-18T15:25:57.763Z,102050.72
2022-12-18T15:28:31.562Z,102054.09
2022-12-18T15:31:06.053Z,102060.38
2022-12-18T15:33:37.004Z,102067.00
2022-12-18T15:36:11.545Z,102064.22
2022-12-18T15:38:40.534Z,102054.09
2022-12-18T15:41:17.842Z,102054.59
2022-12-18T15:43:51.712Z,102049.78
2022-12-18T15:46:23.396Z,102051.69
2022-12-18T15:48:59.631Z,102049.19
2022-12-18T15:51:35.224Z,102052.91
2022-12-18T15:54:06.269Z,102046.97
2022-12-18T15:56:52.585Z,102034.53
2022-12-18T15:59:22.538Z,102024.53
2022-12-18T16:02:23.854Z,102020.25
2022-12-18T16:04:55.181Z,102030.84
2022-12-18T16:07:28.088Z,102025.50
2022-12-18T16:10:06.653Z,102007.53
2022-12-18T16:12:38.096Z,102013.44
2022-12-18T16:15:26.930Z,102009.63
2022-12-18T16:17:56.040Z,101999.25
2022-12-18T16:20:27.906Z,102003.50
2022-12-18T16:22:58.555Z,101990.63
2022-12-18T16:25:37.475Z,102010.09
2022-12-18T16:28:09.058Z,101999.25
2022-12-18T16:30:41.621Z,101988.28
2022-12-18T16:33:12.137Z,101978.94
2022-12-18T16:35:45.588Z,101982.19
2022-12-18T16:38:15.971Z,101981.53
2022-12-18T16:41:00.770Z,101972.69
2022-12-18T16:43:33.084Z,101973.97
2022-12-18T16:46:04.932Z,101975.66
2022-12-18T16:48:38.662Z,101975.56
2022-12-18T16:51:11.129Z,101974.31
2022-12-18T16:53:45.486Z,101978.94
2022-12-18T16:56:18.399Z,101973.59
2022-12-18T16:58:52.684Z,101939.78
2022-12-18T17:01:22.031Z,101864.84
2022-12-18T17:03:55.377Z,101973.16
2022-12-18T17:06:25.576Z,101944.28
2022-12-18T17:09:01.262Z,101958.84
2022-12-18T17:11:34.431Z,101963.06
2022-12-18T17:14:08.439Z,101963.84
2022-12-18T17:16:37.360Z,101951.34
2022-12-18T17:19:10.978Z,101953.56
2022-12-18T17:21:49.887Z,101943.50
2022-12-18T17:24:20.829Z,101846.88
2022-12-18T17:26:52.273Z,101969.25
2022-12-18T17:29:22.015Z,101970.75
2022-12-18T17:31:53.180Z,101963.84
2022-12-18T17:34:24.495Z,101955.22
2022-12-18T17:36:53.950Z,101953.28
2022-12-18T17:39:28.756Z,101948.94
2022-12-18T17:41:57.712Z,101953.72
2022-12-18T17:44:27.230Z,101948.94
2022-12-18T17:46:56.578Z,101940.00
2022-12-18T17:49:26.146Z,101940.50
2022-12-18T17:51:54.981Z,101953.03
2022-12-18T17:54:24.112Z,101963.19
2022-12-18T17:56:54.853Z,101934.47
2022-12-18T17:59:26.534Z,101941.31
2022-12-18T18:01:55.987Z,101934.69
2022-12-18T18:04:25.164Z,101937.28
2022-12-18T18:06:53.966Z,101930.44
2022-12-18T18:09:22.897Z,101959.25
2022-12-18T18:12:09.561Z,101940.63
2022-12-18T18:14:40.170Z,101938.81
2022-12-18T18:17:09.657Z,101939.44
2022-12-18T18:19:39.355Z,101941.50
2022-12-18T18:22:09.770Z,101937.25
2022-12-18T18:24:38.712Z,101937.34
2022-12-18T18:27:07.635Z,101930.66
2022-12-18T18:29:36.798Z,101913.53
2022-12-18T18:32:07.457Z,101936.69
2022-12-18T18:34:36.654Z,101922.81
2022-12-18T18:37:05.984Z,101938.25
2022-12-18T18:39:37.756Z,101921.09
2022-12-18T18:42:06.769Z,101931.41
2022-12-18T18:44:35.575Z,101933.25
2022-12-18T18:47:09.608Z,101932.38
2022-12-18T18:49:38.457Z,101828.25
2022-12-18T18:52:08.416Z,101931.56
2022-12-18T18:55:11.636Z,101922.34
2022-12-18T18:58:17.549Z,101909.38
2022-12-18T19:00:46.829Z,101945.09
2022-12-18T19:03:21.228Z,101919.00
2022-12-18T19:05:53.495Z,101905.91
2022-12-18T19:08:22.283Z,101920.63
2022-12-18T19:10:58.112Z,101920.94
2022-12-18T19:13:28.649Z,101918.94
2022-12-18T19:16:04.907Z,101913.84
2022-12-18T19:18:38.126Z,101922.47
2022-12-18T19:21:09.354Z,101920.63
2022-12-18T19:23:46.966Z,101927.09
2022-12-18T19:26:27.365Z,101912.13
2022-12-18T19:29:02.714Z,101913.19
2022-12-18T19:31:35.715Z,101896.84
2022-12-18T19:34:08.029Z,101913.19
2022-12-18T19:36:39.521Z,101911.34
2022-12-18T19:39:12.324Z,101907.13
2022-12-18T19:41:41.819Z,101906.06
2022-12-18T19:44:13.377Z,101910.72
2022-12-18T19:46:42.991Z,101914.63
2022-12-18T19:49:18.072Z,101917.47
2022-12-18T19:51:50.517Z,101908.97
2022-12-18T19:54:19.845Z,101912.25
2022-12-18T19:56:52.914Z,101906.38
2022-12-18T19:59:22.186Z,101898.69
2022-12-18T20:01:54.580Z,101904.59
2022-12-18T20:04:25.453Z,101894.09
2022-12-18T20:06:55.108Z,101900.19
2022-12-18T20:09:24.575Z,101887.56
2022-12-18T20:11:54.598Z,101888.88
2022-12-18T20:14:23.926Z,101886.03
2022-12-18T20:16:53.499Z,101895.31
2022-12-18T20:19:25.049Z,101882.72
2022-12-18T20:21:53.785Z,101887.91
2022-12-18T20:24:22.832Z,101886.03
2022-12-18T20:26:51.477Z,101876.75
2022-12-18T20:29:20.347Z,101837.28
2022-12-18T20:31:49.177Z,101875.84
2022-12-18T20:34:18.410Z,101873.38
2022-12-18T20:36:49.479Z,101863.22
2022-12-18T20:39:18.796Z,101863.97
2022-12-18T20:41:48.033Z,101750.38
2022-12-18T20:44:22.348Z,101709.72
2022-12-18T20:46:54.651Z,101845.91
2022-12-18T20:49:24.191Z,101836.66
2022-12-18T20:51:56.371Z,101838.56
2022-12-18T20:54:29.019Z,101844.41
2022-12-18T20:56:58.369Z,101818.78
2022-12-18T20:59:27.415Z,101828.19
2022-12-18T21:01:56.954Z,101818.00
2022-12-18T21:04:26.144Z,101816.41
2022-12-18T21:07:02.347Z,101806.91
2022-12-18T21:09:37.173Z,101807.00
2022-12-18T21:12:30.198Z,101803.53
2022-12-18T21:15:09.753Z,101805.06
2022-12-18T21:17:44.678Z,101812.72
2022-12-18T21:20:17.954Z,101796.78
2022-12-18T21:22:49.628Z,101793.28
2022-12-18T21:25:19.139Z,101795.03
2022-12-18T21:27:50.588Z,101781.53
2022-12-18T21:30:19.935Z,101792.44
2022-12-18T21:32:49.371Z,101783.06
2022-12-18T21:35:18.259Z,101780.63
2022-12-18T21:37:50.786Z,101793.22
2022-12-18T21:40:19.896Z,101764.38
2022-12-18T21:43:06.365Z,101760.00
2022-12-18T21:45:35.768Z,101762.59
2022-12-18T21:48:04.583Z,101761.81
2022-12-18T21:50:34.788Z,101744.00
2022-12-18T21:53:05.428Z,101746.50
2022-12-18T21:55:34.740Z,101732.97
2022-12-18T21:58:06.080Z,101734.53
2022-12-18T22:01:04.350Z,101743.81
2022-12-18T22:03:33.730Z,101736.41
2022-12-18T22:06:09.181Z,101726.03
2022-12-18T22:08:43.764Z,101724.38
2022-12-18T22:11:13.852Z,101718.41
2022-12-18T22:13:43.567Z,101709.06
2022-12-18T22:16:12.368Z,101709.81
2022-12-18T22:18:41.138Z,101701.44
2022-12-18T22:21:29.405Z,101697.91
2022-12-18T22:24:01.765Z,101673.91
2022-12-18T22:26:37.862Z,101691.03
2022-12-18T22:29:26.068Z,101684.34
2022-12-18T22:31:55.284Z,101667.28
2022-12-18T22:34:24.423Z,101655.28
2022-12-18T22:36:53.498Z,101652.72
2022-12-18T22:39:25.729Z,101658.81
2022-12-18T22:41:57.741Z,101655.41
2022-12-18T22:44:26.527Z,101635.66
2022-12-18T22:47:06.315Z,101635.75
2022-12-18T22:49:37.197Z,101513.06
2022-12-18T22:52:09.368Z,101639.25
2022-12-18T22:54:39.842Z,101629.66
2022-12-18T22:57:11.187Z,101508.97
2022-12-18T22:59:39.887Z,101637.44
2022-12-18T23:02:10.904Z,101641.69
2022-12-18T23:04:45.251Z,101646.94
2022-12-18T23:07:17.362Z,101655.44
2022-12-18T23:09:47.854Z,101639.19
2022-12-18T23:12:21.621Z,101628.09
2022-12-18T23:14:50.941Z,101621.28
2022-12-18T23:17:19.914Z,101629.06
2022-12-18T23:19:49.555Z,101613.66
2022-12-18T23:22:18.647Z,101604.16
2022-12-18T23:24:48.913Z,101610.06
2022-12-18T23:27:17.654Z,101591.38
2022-12-18T23:29:46.340Z,101580.28
2022-12-18T23:32:16.558Z,101584.50
2022-12-18T23:34:45.910Z,101582.09
2022-12-18T23:37:35.370Z,101543.44
2022-12-18T23:40:05.402Z,101573.34
2022-12-18T23:42:34.143Z,101579.47
2022-12-18T23:45:03.922Z,101591.41
2022-12-18T23:47:41.266Z,101582.88
2022-12-18T23:50:11.788Z,101586.25
2022-12-18T23:52:43.258Z,101600.84
2022-12-18T23:55:13.321Z,101574.34
2022-12-18T23:57:41.979Z,101576.09
